Sotto Vento — 2BBV3 — position and weather

sailwx.info

Track history (hours):
 
Tides and Currents Weather Stations Pressure Air Temp Water Temp Dewpoint Dewpoint Depression Visibility Wind Speed Wind Dir Waves Ship Positions

Sotto Vento

Last reported at 2018-May-04 16:00 UTC. Time now 2018-Jun-21 16:16 UTC.
Position N 17°01' W 061°46'.
Warning: this ship's position is 48 days out of date.

Length 20 m.

Type: Sailing vessel. MMSI: 235064752.

Date/timePositionNaut miles runAvg speedWind from/ knotsBaromVisibWave heightAir tempDewpointWater temp
2018-May-04 16:00N 17°01' W 061°46'0 0.0
2018-May-04 15:30N 17°01' W 061°46'0 0.0
2018-May-04 14:59N 17°01' W 061°46'0 0.0
2018-May-04 14:29N 17°01' W 061°46'0 0.0
2018-May-04 13:59N 17°01' W 061°46'1 1.7
2018-May-04 13:30N 17°01' W 061°47'3 5.3
2018-May-04 13:00N 16°60' W 061°44'1 2.1
2018-May-04 12:28N 17°01' W 061°44'0 0.0
2018-May-03 20:59N 17°01' W 061°44'0 0.0
2018-May-03 20:29N 17°01' W 061°44'0 0.1
2018-May-03 19:59N 17°01' W 061°44'2 4.5
2018-May-03 19:30N 16°59' W 061°45'3 5.7
2018-May-03 19:00N 16°59' W 061°47'2 4.1
2018-May-03 18:30N 16°59' W 061°50'1 2.7
2018-May-03 18:00N 17°01' W 061°50'0 0.0
2018-May-03 17:30N 17°01' W 061°50'0 0.0
2018-May-03 17:00N 17°01' W 061°50'0 0.0
2018-May-03 16:30N 17°01' W 061°50'0 0.0
2018-May-03 16:00N 17°01' W 061°50'0 0.0
2018-May-03 15:30N 17°01' W 061°50'0 0.1
2018-May-03 15:00N 17°00' W 061°50'2 5.0
2018-May-03 14:30N 16°59' W 061°48'4 7.1
2018-May-03 13:57N 17°00' W 061°44'0 1.0
2018-May-03 13:29N 17°01' W 061°44'  
Track history (hours):
 
Tides and Currents Weather Stations Pressure Air Temp Water Temp Dewpoint Dewpoint Depression Visibility Wind Speed Wind Dir Waves Ship Positions

Sotto Vento

Last reported at 2018-May-04 16:00 UTC. Time now 2018-Jun-21 16:16 UTC.
Position N 17°01' W 061°46'.
Warning: this ship's position is 48 days out of date.

Length 20 m.

Type: Sailing vessel. MMSI: 235064752.

Date/timePositionNaut miles runAvg speedWind from/ knotsBaromVisibWave heightAir tempDewpointWater temp
2018-May-04 16:00N 17°01' W 061°46'0 0.0
2018-May-04 15:30N 17°01' W 061°46'0 0.0
2018-May-04 14:59N 17°01' W 061°46'0 0.0
2018-May-04 14:29N 17°01' W 061°46'0 0.0
2018-May-04 13:59N 17°01' W 061°46'1 1.7
2018-May-04 13:30N 17°01' W 061°47'3 5.3
2018-May-04 13:00N 16°60' W 061°44'1 2.1
2018-May-04 12:28N 17°01' W 061°44'0 0.0
2018-May-03 20:59N 17°01' W 061°44'0 0.0
2018-May-03 20:29N 17°01' W 061°44'0 0.1
2018-May-03 19:59N 17°01' W 061°44'2 4.5
2018-May-03 19:30N 16°59' W 061°45'3 5.7
2018-May-03 19:00N 16°59' W 061°47'2 4.1
2018-May-03 18:30N 16°59' W 061°50'1 2.7
2018-May-03 18:00N 17°01' W 061°50'0 0.0
2018-May-03 17:30N 17°01' W 061°50'0 0.0
2018-May-03 17:00N 17°01' W 061°50'0 0.0
2018-May-03 16:30N 17°01' W 061°50'0 0.0
2018-May-03 16:00N 17°01' W 061°50'0 0.0
2018-May-03 15:30N 17°01' W 061°50'0 0.1
2018-May-03 15:00N 17°00' W 061°50'2 5.0
2018-May-03 14:30N 16°59' W 061°48'4 7.1
2018-May-03 13:57N 17°00' W 061°44'0 1.0
2018-May-03 13:29N 17°01' W 061°44'  

Dump ship's entire track history